Time;durP1;ratioP1;P1;durP2;ratioP2;P2;SDS_P1;SDS_P2;PMS_P1;PMS_P2;Temp;Humidity;BMP_temperature;BMP_pressure;BME280_temperature;BME280_humidity;BME280_pressure;Samples;Min_cycle;Max_cycle;Signal;HPM_P1;HPM_P2
2021/04/14 00:02:05;;;;;;;48.28;23.45;;;1.10;99.90;;;;;;5113990;28;20534;-81
2021/04/14 00:04:33;;;;;;;35.55;19.35;;;1.10;99.90;;;;;;5113686;28;20100;-81
2021/04/14 00:07:00;;;;;;;32.55;18.17;;;1.10;99.90;;;;;;5113636;28;20027;-82
2021/04/14 00:09:27;;;;;;;58.83;26.60;;;1.10;99.90;;;;;;5113552;28;20024;-81
2021/04/14 00:11:52;;;;;;;28.02;17.17;;;1.10;99.90;;;;;;5114916;28;20076;-82
2021/04/14 00:14:19;;;;;;;67.25;31.33;;;1.10;99.90;;;;;;5114885;28;20027;-81
2021/04/14 00:16:44;;;;;;;63.03;28.45;;;1.00;99.90;;;;;;5113481;28;20118;-81
2021/04/14 00:19:10;;;;;;;30.13;17.95;;;1.00;99.90;;;;;;5113447;28;20055;-81
2021/04/14 00:21:36;;;;;;;29.33;15.18;;;1.00;99.90;;;;;;5113429;28;20485;-82
2021/04/14 00:24:02;;;;;;;23.58;14.90;;;1.10;99.90;;;;;;5113906;28;20036;-80
2021/04/14 00:26:27;;;;;;;25.33;14.43;;;1.00;99.90;;;;;;5113193;28;20012;-80
2021/04/14 00:28:54;;;;;;;24.98;15.18;;;1.00;99.90;;;;;;5113248;28;20379;-79
2021/04/14 00:31:34;;;;;;;24.65;15.55;;;1.00;99.90;;;;;;5114499;28;20069;-81
2021/04/14 00:34:01;;;;;;;22.67;13.82;;;1.00;99.90;;;;;;5114431;28;20107;-81
2021/04/14 00:36:26;;;;;;;34.70;18.75;;;1.00;99.90;;;;;;5114739;27;20152;-82
2021/04/14 00:38:52;;;;;;;37.42;19.27;;;0.90;99.90;;;;;;5113095;28;20019;-81
2021/04/14 00:41:17;;;;;;;27.17;15.82;;;0.90;99.90;;;;;;5113036;28;20022;-82
2021/04/14 00:43:43;;;;;;;24.77;14.82;;;0.80;99.90;;;;;;5114197;28;20016;-82
2021/04/14 00:46:09;;;;;;;25.30;14.25;;;0.80;99.90;;;;;;5112937;28;20381;-82
2021/04/14 00:48:34;;;;;;;24.98;15.45;;;0.80;99.90;;;;;;5114206;28;20473;-82
2021/04/14 00:51:01;;;;;;;32.08;16.45;;;0.90;99.90;;;;;;5112746;28;20031;-83
2021/04/14 00:53:28;;;;;;;24.52;14.68;;;0.80;99.90;;;;;;5112689;28;20015;-83
2021/04/14 00:55:53;;;;;;;23.42;14.77;;;0.90;99.90;;;;;;5113942;28;20038;-83
2021/04/14 00:58:20;;;;;;;25.20;14.45;;;0.80;99.90;;;;;;5112668;28;20469;-83
2021/04/14 01:00:50;;;;;;;22.08;13.77;;;0.90;99.90;;;;;;5112577;28;20031;-82
2021/04/14 01:03:20;;;;;;;24.88;13.85;;;0.90;99.90;;;;;;5112733;28;20085;-82
2021/04/14 01:05:48;;;;;;;21.83;13.30;;;0.90;99.90;;;;;;5112448;28;20515;-81
2021/04/14 01:08:13;;;;;;;18.48;12.30;;;0.80;99.90;;;;;;5114255;28;20030;-80
2021/04/14 01:10:39;;;;;;;16.48;11.10;;;0.90;99.90;;;;;;5112464;28;20110;-80
2021/04/14 01:13:05;;;;;;;16.70;11.60;;;0.90;99.90;;;;;;5112504;28;20051;-81
2021/04/14 01:15:38;;;;;;;19.15;12.95;;;0.90;99.90;;;;;;5112418;28;20556;-80
2021/04/14 01:18:11;;;;;;;17.27;10.75;;;0.90;99.90;;;;;;5108246;28;20097;-81
2021/04/14 01:20:37;;;;;;;15.95;10.02;;;1.00;99.90;;;;;;5092031;28;20016;-80
2021/04/14 01:23:05;;;;;;;15.02;10.10;;;0.90;99.90;;;;;;5093297;28;20438;-81
2021/04/14 01:25:35;;;;;;;17.27;11.32;;;0.90;99.90;;;;;;5091773;28;20209;-81
2021/04/14 01:28:03;;;;;;;15.13;9.73;;;1.00;99.90;;;;;;5091913;28;20289;-80
2021/04/14 01:30:30;;;;;;;18.02;11.70;;;1.00;99.90;;;;;;5093177;28;20424;-80
2021/04/14 01:32:56;;;;;;;11.93;8.85;;;1.00;99.90;;;;;;5091864;28;20016;-81
2021/04/14 01:35:24;;;;;;;11.38;7.72;;;0.90;99.90;;;;;;5090797;28;20090;-81
2021/04/14 01:37:51;;;;;;;10.55;7.97;;;0.90;99.90;;;;;;5093029;28;20028;-81
2021/04/14 01:40:18;;;;;;;10.13;7.90;;;0.90;99.90;;;;;;5091635;28;20028;-81
2021/04/14 01:42:44;;;;;;;8.27;7.30;;;0.90;99.90;;;;;;5091699;28;20377;-81
2021/04/14 01:45:12;;;;;;;9.50;6.88;;;0.90;99.90;;;;;;5091524;28;20028;-82
2021/04/14 01:47:38;;;;;;;10.07;7.32;;;0.80;99.90;;;;;;5091595;28;20024;-82
2021/04/14 01:50:06;;;;;;;8.65;6.47;;;0.80;99.90;;;;;;5092843;28;20043;-82
2021/04/14 01:52:32;;;;;;;8.25;6.68;;;0.80;99.90;;;;;;5091566;28;20016;-81
2021/04/14 01:54:58;;;;;;;10.30;6.60;;;0.80;99.90;;;;;;5090993;28;20035;-81
2021/04/14 01:57:24;;;;;;;8.27;7.22;;;0.80;99.90;;;;;;5092836;28;20028;-81
2021/04/14 01:59:49;;;;;;;8.00;6.72;;;0.80;99.90;;;;;;5092618;28;20539;-81
2021/04/14 02:02:15;;;;;;;6.55;5.88;;;0.80;99.90;;;;;;5091642;28;20030;-81
2021/04/14 02:04:42;;;;;;;7.93;5.70;;;0.80;99.90;;;;;;5091352;28;20105;-82
2021/04/14 02:07:08;;;;;;;7.65;5.85;;;0.80;99.90;;;;;;5092831;28;20054;-82
2021/04/14 02:09:33;;;;;;;6.40;5.75;;;0.70;99.90;;;;;;5092495;28;20355;-81
2021/04/14 02:11:59;;;;;;;5.25;4.78;;;0.80;99.90;;;;;;5091296;28;20024;-81
2021/04/14 02:14:24;;;;;;;8.63;5.55;;;0.70;99.90;;;;;;5092701;28;20016;-81
2021/04/14 02:16:50;;;;;;;6.05;4.95;;;0.70;99.90;;;;;;5091751;28;20428;-81
2021/04/14 02:19:16;;;;;;;6.55;5.10;;;0.70;99.90;;;;;;5091410;28;20378;-82
2021/04/14 02:21:42;;;;;;;5.90;5.32;;;0.70;99.90;;;;;;5091351;28;20069;-83
2021/04/14 02:24:07;;;;;;;5.40;4.90;;;0.70;99.90;;;;;;5091272;28;20370;-81
2021/04/14 02:26:33;;;;;;;7.65;5.40;;;0.70;99.90;;;;;;5091359;28;20028;-81
2021/04/14 02:28:59;;;;;;;6.10;4.75;;;0.70;99.90;;;;;;5091253;28;20058;-82
2021/04/14 02:31:30;;;;;;;7.38;5.65;;;0.70;99.90;;;;;;5091179;28;20149;-81
2021/04/14 02:34:05;;;;;;;7.72;5.50;;;0.60;99.90;;;;;;5091306;28;20031;-81
2021/04/14 02:36:31;;;;;;;8.90;5.85;;;0.60;99.90;;;;;;5092610;28;20031;-81
2021/04/14 02:38:57;;;;;;;8.32;5.93;;;0.60;99.90;;;;;;5091190;28;20397;-81
2021/04/14 02:41:23;;;;;;;8.52;6.03;;;0.60;99.90;;;;;;5092405;28;20473;-83
2021/04/14 02:43:51;;;;;;;8.27;6.50;;;0.60;99.90;;;;;;5091037;28;20020;-82
2021/04/14 02:46:16;;;;;;;8.57;6.82;;;0.60;99.90;;;;;;5092777;28;20088;-82
2021/04/14 02:48:42;;;;;;;7.50;6.53;;;0.60;99.90;;;;;;5096155;28;20095;-81
2021/04/14 02:51:08;;;;;;;10.20;7.32;;;0.60;99.90;;;;;;5096071;28;20024;-79
2021/04/14 02:53:34;;;;;;;10.25;7.80;;;0.60;99.90;;;;;;5096019;28;20024;-81
2021/04/14 02:56:00;;;;;;;8.93;7.43;;;0.60;99.90;;;;;;5094683;28;20504;-80
2021/04/14 02:58:26;;;;;;;11.20;7.85;;;0.70;99.90;;;;;;5094690;28;20024;-80
2021/04/14 03:00:52;;;;;;;12.80;7.72;;;0.70;99.90;;;;;;5094448;28;20094;-80
2021/04/14 03:03:18;;;;;;;11.45;7.72;;;0.60;99.90;;;;;;5094630;28;20059;-82
2021/04/14 03:05:44;;;;;;;15.32;9.05;;;0.70;99.90;;;;;;5093880;28;20055;-82
2021/04/14 03:08:09;;;;;;;10.05;7.95;;;0.60;99.90;;;;;;5095821;28;20105;-82
2021/04/14 03:10:35;;;;;;;10.43;7.85;;;0.60;99.90;;;;;;5094706;28;20031;-82
2021/04/14 03:13:03;;;;;;;11.25;8.55;;;0.60;99.90;;;;;;5095667;28;20027;-82
2021/04/14 03:15:32;;;;;;;10.10;7.15;;;0.60;99.90;;;;;;5094315;28;20115;-83
2021/04/14 03:17:58;;;;;;;12.07;8.05;;;0.60;99.90;;;;;;5094252;28;20069;-83
2021/04/14 03:20:24;;;;;;;12.15;8.65;;;0.60;99.90;;;;;;5094147;28;20028;-81
2021/04/14 03:22:51;;;;;;;14.20;8.90;;;0.70;99.90;;;;;;5094123;28;20027;-81
2021/04/14 03:25:19;;;;;;;12.85;9.05;;;0.70;99.90;;;;;;5094122;28;20135;-81
2021/04/14 03:27:44;;;;;;;13.15;9.35;;;0.60;99.90;;;;;;5094051;28;20106;-81
2021/04/14 03:30:10;;;;;;;16.88;10.35;;;0.70;99.90;;;;;;5095368;28;20104;-81
2021/04/14 03:32:36;;;;;;;13.35;9.57;;;0.70;99.90;;;;;;5093708;28;20027;-82
2021/04/14 03:35:04;;;;;;;14.27;9.45;;;0.70;99.90;;;;;;5093913;28;20727;-82
2021/04/14 03:37:29;;;;;;;13.98;9.05;;;0.70;99.90;;;;;;5093792;28;20107;-82
2021/04/14 03:39:55;;;;;;;14.45;8.48;;;0.70;99.90;;;;;;5093809;28;20508;-81
2021/04/14 03:42:21;;;;;;;16.55;9.48;;;0.60;99.90;;;;;;5093869;28;20107;-81
2021/04/14 03:44:51;;;;;;;14.35;9.32;;;0.70;99.90;;;;;;5093662;28;20036;-81
2021/04/14 03:47:18;;;;;;;14.30;8.20;;;0.70;99.90;;;;;;5093844;28;20020;-81
2021/04/14 03:49:44;;;;;;;13.27;8.27;;;0.80;99.90;;;;;;5093510;28;20474;-82
2021/04/14 03:52:09;;;;;;;7.93;6.75;;;0.80;99.90;;;;;;5093699;28;20024;-81
2021/04/14 03:54:35;;;;;;;10.27;7.00;;;0.80;99.90;;;;;;5094859;28;20031;-81
2021/04/14 03:57:01;;;;;;;9.07;6.38;;;0.70;99.90;;;;;;5092764;28;20528;-81
2021/04/14 03:59:26;;;;;;;8.43;6.28;;;0.70;99.90;;;;;;5093081;28;20131;-81
2021/04/14 04:01:54;;;;;;;8.93;6.65;;;0.70;99.90;;;;;;5094782;28;20029;-81
2021/04/14 04:04:20;;;;;;;8.63;6.47;;;0.60;99.90;;;;;;5093343;28;20408;-81
2021/04/14 04:06:45;;;;;;;9.38;6.70;;;0.70;99.90;;;;;;5093292;28;20098;-80
2021/04/14 04:09:11;;;;;;;8.18;6.35;;;0.60;99.90;;;;;;5093371;28;20058;-80
2021/04/14 04:11:37;;;;;;;10.70;7.20;;;0.70;99.90;;;;;;5093270;28;20473;-81
2021/04/14 04:14:03;;;;;;;9.63;7.15;;;0.60;99.90;;;;;;5094521;28;20024;-81
2021/04/14 04:16:28;;;;;;;10.73;6.53;;;0.70;99.90;;;;;;5093187;28;20024;-81
2021/04/14 04:18:54;;;;;;;17.02;9.90;;;0.70;99.90;;;;;;5094390;28;20466;-81
2021/04/14 04:21:21;;;;;;;16.10;9.43;;;0.70;99.90;;;;;;5093074;28;20020;-81
2021/04/14 04:23:46;;;;;;;21.05;10.68;;;0.70;99.90;;;;;;5092287;28;20020;-82
2021/04/14 04:26:12;;;;;;;15.55;10.50;;;0.70;99.90;;;;;;5089116;28;20036;-83
2021/04/14 04:28:38;;;;;;;15.05;10.20;;;0.70;99.90;;;;;;5092135;28;20377;-83
2021/04/14 04:31:04;;;;;;;13.70;8.73;;;0.70;99.90;;;;;;5089495;28;20343;-82
2021/04/14 04:33:30;;;;;;;12.40;9.02;;;0.70;99.90;;;;;;5092249;28;20039;-83
2021/04/14 04:35:56;;;;;;;12.63;9.77;;;0.70;99.90;;;;;;5092562;28;20024;-81
2021/04/14 04:38:22;;;;;;;17.58;11.43;;;0.70;99.90;;;;;;5092817;28;20020;-81
2021/04/14 04:40:47;;;;;;;14.45;9.65;;;0.70;99.90;;;;;;5092406;28;20389;-81
2021/04/14 04:43:14;;;;;;;12.70;8.82;;;0.70;99.90;;;;;;5093988;28;20024;-81
2021/04/14 04:58:02;;;;;;;10.68;7.97;;;0.70;99.90;;;;;;5109723;27;20359;-82
2021/04/14 05:00:27;;;;;;;12.73;8.32;;;0.80;99.90;;;;;;5108505;28;20104;-82
2021/04/14 05:02:54;;;;;;;11.32;8.05;;;0.80;99.90;;;;;;5108538;28;20023;-81
2021/04/14 05:05:23;;;;;;;13.70;7.80;;;0.70;99.90;;;;;;5110142;28;20069;-81
2021/04/14 05:07:49;;;;;;;12.65;8.35;;;0.70;99.90;;;;;;5108447;28;20070;-81
2021/04/14 05:10:15;;;;;;;16.10;9.30;;;0.70;99.90;;;;;;5109364;28;20016;-80
2021/04/14 05:12:40;;;;;;;20.50;11.90;;;0.70;99.90;;;;;;5108949;28;20065;-81
2021/04/14 05:15:09;;;;;;;17.02;10.27;;;0.70;99.90;;;;;;5108406;28;20031;-81
2021/04/14 05:17:35;;;;;;;11.35;7.65;;;0.70;99.90;;;;;;5108760;28;20023;-81
2021/04/14 05:20:01;;;;;;;24.65;13.75;;;0.70;99.90;;;;;;5110173;28;20605;-82
2021/04/14 05:22:29;;;;;;;18.73;10.40;;;0.70;99.90;;;;;;5110076;28;20020;-81
2021/04/14 05:24:55;;;;;;;19.52;11.02;;;0.70;99.90;;;;;;5110091;28;20507;-82
2021/04/14 05:27:21;;;;;;;17.70;12.13;;;0.70;99.90;;;;;;5108712;28;20024;-82
2021/04/14 05:29:47;;;;;;;22.20;13.18;;;0.70;99.90;;;;;;5091158;28;20028;-82
2021/04/14 05:32:12;;;;;;;13.85;8.85;;;0.70;99.90;;;;;;5088227;28;20044;-80
2021/04/14 05:34:38;;;;;;;8.75;5.30;;;0.70;99.90;;;;;;5093617;28;20020;-80
2021/04/14 05:37:04;;;;;;;12.60;8.60;;;0.60;99.90;;;;;;5096197;28;20027;-81
2021/04/14 05:39:29;;;;;;;14.50;7.70;;;0.70;99.90;;;;;;5099132;28;20038;-81
2021/04/14 05:41:55;;;;;;;10.27;7.43;;;0.70;99.90;;;;;;5098315;28;20029;-83
2021/04/14 05:44:20;;;;;;;11.55;7.97;;;0.70;99.90;;;;;;5095253;28;20020;-81
2021/04/14 05:46:46;;;;;;;7.28;6.55;;;0.70;99.90;;;;;;5095973;28;20174;-82
2021/04/14 05:49:12;;;;;;;20.63;14.88;;;0.70;99.90;;;;;;5095707;28;20021;-82
2021/04/14 05:51:37;;;;;;;13.02;8.50;;;0.70;99.90;;;;;;5097254;28;20488;-82
2021/04/14 05:54:03;;;;;;;13.88;8.25;;;0.70;99.90;;;;;;5096441;28;20028;-80
2021/04/14 05:56:30;;;;;;;10.70;6.82;;;0.70;99.90;;;;;;5091274;28;20119;-82
2021/04/14 05:58:56;;;;;;;10.43;7.80;;;0.80;99.90;;;;;;5076207;28;20029;-82
2021/04/14 06:01:25;;;;;;;14.07;9.43;;;0.70;99.90;;;;;;5076500;28;20115;-83
2021/04/14 06:03:51;;;;;;;11.27;8.05;;;0.70;99.90;;;;;;5084210;28;20017;-83
2021/04/14 06:06:18;;;;;;;19.27;11.55;;;0.80;99.90;;;;;;5084842;28;20370;-84
2021/04/14 06:08:44;;;;;;;13.55;7.82;;;0.80;99.90;;;;;;5087160;28;20015;-84
2021/04/14 06:11:10;;;;;;;9.93;7.07;;;0.80;99.90;;;;;;5087884;28;20512;-83
2021/04/14 06:13:36;;;;;;;9.40;7.38;;;0.70;99.90;;;;;;5088352;28;20043;-82
2021/04/14 06:16:03;;;;;;;11.05;7.65;;;0.80;99.90;;;;;;5089848;28;20024;-82
2021/04/14 06:18:29;;;;;;;13.38;8.30;;;0.80;99.90;;;;;;5093917;28;20024;-82
2021/04/14 06:20:55;;;;;;;13.73;8.57;;;0.80;99.90;;;;;;5083346;28;20152;-83
2021/04/14 06:23:23;;;;;;;18.90;11.02;;;0.80;99.90;;;;;;5083265;28;20081;-82
2021/04/14 06:28:25;;;;;;;;;;;0.90;99.90;;;;;;5086997;28;20021;-82
2021/04/14 06:30:51;;;;;;;6.15;4.97;;;0.80;99.90;;;;;;5078594;28;19904;-81
2021/04/14 06:33:19;;;;;;;22.48;13.02;;;0.80;99.90;;;;;;5073315;28;20081;-84
2021/04/14 06:35:46;;;;;;;9.43;7.05;;;0.70;99.90;;;;;;5074721;28;20027;-82
2021/04/14 06:38:15;;;;;;;16.15;7.97;;;0.70;99.90;;;;;;5076372;28;20035;-77
2021/04/14 06:40:54;;;;;;;16.83;11.90;;;0.80;99.90;;;;;;5082735;28;20486;-83
2021/04/14 06:43:55;;;;;;;6.95;5.75;;;0.80;99.90;;;;;;5089940;28;20056;-82
2021/04/14 06:46:31;;;;;;;7.97;5.05;;;0.80;99.90;;;;;;5015868;28;20091;-83
2021/04/14 06:48:59;;;;;;;10.27;5.18;;;0.80;99.90;;;;;;5079079;28;20047;-82
2021/04/14 06:51:40;;;;;;;6.53;3.95;;;0.80;99.90;;;;;;5084598;28;20047;-82
2021/04/14 06:54:21;;;;;;;8.18;5.05;;;0.80;99.90;;;;;;5082110;28;20024;-81
2021/04/14 06:56:51;;;;;;;6.07;4.20;;;0.80;99.90;;;;;;5093388;28;20063;-82
2021/04/14 06:59:21;;;;;;;6.95;4.32;;;0.80;99.90;;;;;;5091589;28;20121;-80
2021/04/14 07:02:08;;;;;;;8.35;5.18;;;0.90;99.90;;;;;;5091073;28;20038;-84
2021/04/14 07:04:46;;;;;;;7.20;4.90;;;0.80;99.90;;;;;;5082487;28;20032;-83
2021/04/14 07:07:21;;;;;;;15.75;8.75;;;0.70;99.90;;;;;;5087039;28;20075;-82
2021/04/14 07:09:49;;;;;;;4.88;4.30;;;0.70;99.90;;;;;;5082667;28;20444;-83
2021/04/14 07:12:19;;;;;;;15.25;8.27;;;0.70;99.90;;;;;;5086360;28;20078;-82
2021/04/14 07:14:46;;;;;;;12.13;6.65;;;0.80;99.90;;;;;;5093058;28;20557;-83
2021/04/14 07:17:46;;;;;;;13.10;6.70;;;0.90;99.90;;;;;;5093365;28;20024;-82
2021/04/14 07:20:18;;;;;;;9.25;6.32;;;0.80;99.90;;;;;;5082651;28;20491;-83
2021/04/14 07:22:51;;;;;;;13.82;6.50;;;0.80;99.90;;;;;;5084147;28;20426;-84
2021/04/14 07:25:27;;;;;;;12.13;6.05;;;0.80;99.90;;;;;;5089389;28;20050;-85
2021/04/14 07:28:09;;;;;;;11.73;7.18;;;0.90;99.90;;;;;;5083204;28;20141;-83
2021/04/14 07:30:42;;;;;;;5.88;4.95;;;0.90;99.90;;;;;;5085821;28;20099;-85
2021/04/14 07:33:16;;;;;;;6.88;4.95;;;0.80;99.90;;;;;;5078929;28;20284;-89
2021/04/14 07:36:13;;;;;;;9.20;5.47;;;1.00;99.90;;;;;;5091529;28;20035;-82
2021/04/14 07:38:42;;;;;;;10.30;5.32;;;0.90;99.90;;;;;;5091778;28;20046;-81
2021/04/14 07:41:27;;;;;;;10.27;6.07;;;0.80;99.90;;;;;;5084532;28;20050;-81
2021/04/14 07:44:03;;;;;;;18.70;8.65;;;1.00;99.90;;;;;;5091513;28;20039;-81
2021/04/14 07:46:29;;;;;;;6.00;4.57;;;1.00;99.90;;;;;;5091481;28;20152;-82
2021/04/14 07:48:58;;;;;;;8.23;5.63;;;1.00;99.90;;;;;;5088411;28;20034;-82
2021/04/14 07:51:28;;;;;;;12.15;7.20;;;1.10;99.90;;;;;;5083399;28;20036;-80
2021/04/14 07:54:05;;;;;;;9.02;5.50;;;1.20;99.90;;;;;;5090802;28;20362;-80
2021/04/14 07:56:59;;;;;;;5.18;3.60;;;1.30;99.90;;;;;;5090615;28;20491;-81
2021/04/14 07:59:36;;;;;;;7.53;5.20;;;1.30;99.90;;;;;;5078022;28;20081;-82
2021/04/14 08:02:14;;;;;;;9.80;3.67;;;1.40;99.90;;;;;;5091191;28;20399;-81
2021/04/14 08:04:44;;;;;;;6.70;4.53;;;1.40;99.90;;;;;;5090892;28;20028;-81
2021/04/14 08:07:24;;;;;;;7.50;4.43;;;1.50;99.90;;;;;;5091835;28;20113;-81
2021/04/14 08:10:04;;;;;;;5.05;4.63;;;1.50;99.90;;;;;;5080409;28;20095;-84
2021/04/14 08:12:33;;;;;;;6.18;4.40;;;1.50;99.90;;;;;;5079924;28;20115;-85
2021/04/14 08:15:32;;;;;;;6.53;5.10;;;1.60;99.90;;;;;;5079501;28;20020;-84
2021/04/14 08:18:27;;;;;;;6.00;4.22;;;1.60;99.90;;;;;;5043662;28;20424;-83
2021/04/14 08:21:09;;;;;;;8.20;4.57;;;1.70;99.90;;;;;;5072017;28;20021;-84
2021/04/14 08:23:36;;;;;;;6.80;4.65;;;1.70;99.90;;;;;;5072516;28;20021;-82
2021/04/14 08:26:14;;;;;;;5.97;5.00;;;1.80;99.90;;;;;;5073624;28;20036;-84
2021/04/14 08:28:48;;;;;;;7.40;5.38;;;1.80;99.90;;;;;;5077571;28;20045;-82
2021/04/14 08:31:36;;;;;;;9.32;6.00;;;1.80;99.90;;;;;;5085017;28;20020;-81
2021/04/14 08:34:28;;;;;;;5.75;5.00;;;1.70;99.90;;;;;;5083757;28;20012;-81
2021/04/14 08:37:06;;;;;;;8.63;5.47;;;1.70;99.90;;;;;;5080572;28;20024;-82
2021/04/14 08:39:44;;;;;;;9.95;5.60;;;1.70;99.90;;;;;;5082603;28;20103;-81
2021/04/14 08:42:25;;;;;;;9.70;5.45;;;1.80;99.90;;;;;;5078890;28;20469;-81
2021/04/14 08:45:11;;;;;;;9.00;5.80;;;1.80;99.90;;;;;;5082774;28;20013;-81
2021/04/14 08:47:51;;;;;;;10.80;7.05;;;1.90;99.90;;;;;;5077883;28;20032;-82
2021/04/14 08:50:45;;;;;;;18.58;15.50;;;1.90;99.90;;;;;;5086938;28;20110;-82
2021/04/14 08:53:17;;;;;;;9.50;6.25;;;1.90;99.90;;;;;;5076408;28;20103;-81
2021/04/14 08:55:43;;;;;;;13.02;7.28;;;1.90;99.90;;;;;;5086525;28;20032;-81
2021/04/14 08:58:15;;;;;;;11.07;7.47;;;2.10;99.90;;;;;;5083493;28;20022;-80
2021/04/14 09:00:42;;;;;;;16.20;9.70;;;2.10;99.90;;;;;;5084839;28;20070;-80
2021/04/14 09:03:10;;;;;;;19.08;14.32;;;2.10;99.90;;;;;;5088050;28;20464;-81
2021/04/14 09:05:36;;;;;;;10.00;6.88;;;2.10;99.90;;;;;;5088484;28;20107;-79
2021/04/14 09:08:07;;;;;;;15.38;9.88;;;2.10;99.90;;;;;;5084167;28;20030;-80
2021/04/14 09:10:39;;;;;;;12.73;8.10;;;2.20;99.90;;;;;;5084757;28;20017;-82
2021/04/14 09:13:07;;;;;;;10.73;6.95;;;2.10;99.90;;;;;;5085765;28;20027;-81
2021/04/14 09:15:45;;;;;;;9.85;7.32;;;2.00;99.90;;;;;;5086715;28;20090;-81
2021/04/14 09:18:11;;;;;;;15.95;9.45;;;2.20;99.90;;;;;;5082673;28;20016;-82
2021/04/14 09:20:38;;;;;;;14.25;8.38;;;2.30;99.90;;;;;;5080308;28;20115;-80
2021/04/14 09:23:16;;;;;;;14.00;8.98;;;2.40;99.90;;;;;;5081530;28;20040;-80
2021/04/14 09:25:48;;;;;;;9.43;6.85;;;2.50;99.90;;;;;;5075432;28;20347;-81
2021/04/14 09:28:46;;;;;;;12.52;6.47;;;2.50;99.90;;;;;;5078396;28;20059;-82
2021/04/14 09:31:39;;;;;;;10.75;6.53;;;2.50;99.90;;;;;;5073306;28;20020;-85
2021/04/14 09:34:42;;;;;;;16.17;8.82;;;2.20;99.90;;;;;;5074075;28;20066;-83
2021/04/14 09:37:16;;;;;;;11.45;8.15;;;2.40;99.90;;;;;;5075788;28;20470;-84
2021/04/14 09:39:46;;;;;;;9.57;6.53;;;2.50;99.90;;;;;;5078010;28;20058;-83
2021/04/14 09:42:46;;;;;;;11.50;7.43;;;2.50;99.90;;;;;;5087254;28;20370;-83
2021/04/14 09:45:26;;;;;;;10.25;7.30;;;2.50;99.90;;;;;;5092751;28;20381;-85
2021/04/14 09:47:52;;;;;;;9.82;7.43;;;2.50;99.90;;;;;;5094235;28;20090;-84
2021/04/14 09:50:37;;;;;;;10.70;7.47;;;2.40;99.90;;;;;;5088610;28;20052;-84
2021/04/14 09:53:23;;;;;;;13.30;8.82;;;2.50;99.90;;;;;;5080074;28;20378;-84
2021/04/14 09:55:57;;;;;;;15.85;9.93;;;2.60;99.90;;;;;;5087211;28;20023;-84
2021/04/14 09:58:43;;;;;;;14.07;9.13;;;2.60;99.90;;;;;;5101649;28;20015;-81
2021/04/14 10:01:20;;;;;;;17.67;10.25;;;2.90;99.90;;;;;;5088968;28;20048;-77
2021/04/14 10:03:48;;;;;;;17.90;10.55;;;2.80;99.90;;;;;;5075548;28;20012;-77
2021/04/14 10:06:20;;;;;;;18.33;10.63;;;2.80;99.90;;;;;;5075463;28;20040;-78
2021/04/14 10:08:46;;;;;;;21.70;12.85;;;2.80;99.90;;;;;;5073559;28;20107;-77
2021/04/14 10:11:29;;;;;;;14.63;9.13;;;3.00;99.90;;;;;;5074031;28;20385;-80
2021/04/14 10:13:56;;;;;;;16.45;11.40;;;2.80;99.90;;;;;;5089582;28;20423;-78
2021/04/14 10:16:24;;;;;;;16.20;9.93;;;2.90;99.90;;;;;;5092163;28;20482;-80
2021/04/14 10:19:01;;;;;;;17.25;11.25;;;2.80;99.90;;;;;;5086553;28;20016;-80
2021/04/14 10:21:28;;;;;;;15.63;10.05;;;2.90;99.90;;;;;;5083075;28;20020;-80
2021/04/14 10:23:59;;;;;;;15.85;9.80;;;2.80;99.90;;;;;;5073189;28;20147;-80
2021/04/14 10:26:24;;;;;;;20.65;11.15;;;2.70;99.90;;;;;;5070796;28;20043;-78
2021/04/14 10:28:50;;;;;;;19.17;11.18;;;2.80;99.90;;;;;;5091713;28;20017;-81
2021/04/14 10:31:22;;;;;;;17.08;9.98;;;3.00;99.90;;;;;;5095269;28;20028;-78
2021/04/14 10:33:48;;;;;;;26.45;13.60;;;3.00;99.90;;;;;;5092050;28;20092;-83
2021/04/14 10:36:32;;;;;;;31.10;14.60;;;3.00;99.90;;;;;;5087358;28;20029;-84
2021/04/14 10:39:16;;;;;;;;;;;2.90;99.90;;;;;;5073132;28;20047;-84
2021/04/14 10:41:43;;;;;;;22.50;12.35;;;2.90;99.90;;;;;;5078134;28;19958;-84
2021/04/14 10:44:14;;;;;;;18.65;10.35;;;3.20;99.90;;;;;;5082831;28;20073;-84
2021/04/14 10:46:40;;;;;;;17.70;9.25;;;3.20;99.90;;;;;;5074311;28;20500;-83
2021/04/14 10:49:10;;;;;;;14.45;8.57;;;3.10;99.90;;;;;;5072818;28;20020;-82
2021/04/14 10:51:47;;;;;;;13.80;7.93;;;3.10;99.90;;;;;;5073937;28;20020;-82
2021/04/14 10:54:16;;;;;;;12.82;8.30;;;2.80;99.90;;;;;;5074016;28;20036;-82
2021/04/14 10:56:42;;;;;;;12.43;7.97;;;2.80;99.90;;;;;;5076246;28;20039;-82
2021/04/14 10:59:14;;;;;;;13.48;7.78;;;2.90;99.90;;;;;;5085284;28;20384;-84
2021/04/14 11:01:46;;;;;;;9.88;6.60;;;3.00;99.90;;;;;;5083520;28;20032;-81
2021/04/14 11:04:14;;;;;;;11.57;7.25;;;3.10;99.90;;;;;;5088583;28;20005;-81
2021/04/14 11:06:41;;;;;;;13.10;7.63;;;3.20;99.90;;;;;;5085959;28;20032;-81
2021/04/14 11:09:08;;;;;;;8.88;6.07;;;3.50;99.90;;;;;;5083049;28;20008;-81
2021/04/14 11:11:36;;;;;;;8.25;4.90;;;3.60;99.90;;;;;;5091687;28;20031;-81
2021/04/14 11:14:04;;;;;;;7.65;5.05;;;3.60;96.00;;;;;;5082472;28;20028;-80
2021/04/14 11:16:32;;;;;;;10.05;4.97;;;3.60;97.70;;;;;;5076550;28;20109;-81
2021/04/14 11:18:57;;;;;;;11.10;5.60;;;3.70;96.30;;;;;;5082856;28;20026;-81
2021/04/14 11:21:30;;;;;;;7.65;5.00;;;3.80;95.80;;;;;;5089913;28;20020;-81
2021/04/14 11:24:07;;;;;;;10.85;6.95;;;3.70;92.80;;;;;;5092588;28;20439;-81
2021/04/14 11:26:37;;;;;;;8.65;5.55;;;3.90;93.20;;;;;;5093175;28;20047;-82
2021/04/14 11:29:04;;;;;;;7.43;5.50;;;4.20;96.20;;;;;;5094774;28;20016;-81
2021/04/14 11:31:39;;;;;;;6.50;4.65;;;3.90;94.60;;;;;;5094062;28;20031;-82
2021/04/14 11:34:26;;;;;;;11.02;6.13;;;4.00;92.80;;;;;;5090647;28;20032;-81
2021/04/14 11:37:06;;;;;;;9.25;5.40;;;3.90;92.40;;;;;;5090739;28;20020;-80
2021/04/14 11:39:48;;;;;;;9.35;5.63;;;3.70;92.20;;;;;;5090265;28;20374;-81
2021/04/14 11:42:17;;;;;;;11.77;6.65;;;3.60;92.70;;;;;;5073565;28;20032;-81
2021/04/14 11:44:44;;;;;;;10.50;6.05;;;3.60;97.70;;;;;;5072109;28;20025;-82
2021/04/14 11:47:21;;;;;;;12.25;6.68;;;3.60;94.80;;;;;;5072334;28;20040;-79
2021/04/14 11:49:47;;;;;;;7.35;4.80;;;3.90;98.50;;;;;;5073393;28;20025;-78
2021/04/14 11:52:35;;;;;;;10.55;5.18;;;3.90;94.20;;;;;;5073283;28;20032;-79
2021/04/14 11:55:19;;;;;;;8.32;4.40;;;4.00;95.80;;;;;;5071709;28;20025;-79
2021/04/14 11:57:46;;;;;;;4.60;3.45;;;4.00;91.30;;;;;;5078144;28;20044;-79
2021/04/14 12:00:26;;;;;;;5.03;4.50;;;4.00;92.10;;;;;;5083001;28;20016;-79
2021/04/14 12:02:59;;;;;;;5.53;3.67;;;3.60;91.80;;;;;;5083233;28;20058;-79
2021/04/14 12:05:25;;;;;;;10.38;5.60;;;3.60;94.90;;;;;;5081466;28;20029;-80
2021/04/14 12:07:51;;;;;;;6.82;4.38;;;3.50;96.70;;;;;;5080220;28;20031;-81
2021/04/14 12:10:18;;;;;;;5.45;4.63;;;3.70;99.80;;;;;;5085225;28;20017;-80
2021/04/14 12:12:43;;;;;;;6.85;4.97;;;3.80;99.90;;;;;;5079342;28;20393;-80
2021/04/14 12:15:10;;;;;;;13.15;7.47;;;3.80;99.90;;;;;;5082165;28;20020;-80
2021/04/14 12:17:36;;;;;;;6.50;3.97;;;3.80;99.90;;;;;;5082671;28;20028;-80
2021/04/14 12:20:03;;;;;;;5.90;4.50;;;3.60;99.90;;;;;;5088860;28;20106;-79
2021/04/14 12:22:29;;;;;;;6.47;4.32;;;3.70;99.90;;;;;;5088731;28;20043;-78
2021/04/14 12:24:55;;;;;;;6.13;4.80;;;3.80;99.90;;;;;;5087667;28;20062;-78
2021/04/14 12:27:22;;;;;;;10.70;6.13;;;3.80;99.90;;;;;;5092528;28;20060;-78
2021/04/14 12:29:51;;;;;;;4.63;4.00;;;3.70;99.90;;;;;;5090796;28;20028;-77
2021/04/14 12:32:18;;;;;;;7.03;4.85;;;3.50;99.90;;;;;;5074297;28;20024;-80
2021/04/14 12:34:44;;;;;;;10.23;5.20;;;3.40;99.90;;;;;;5071568;28;20032;-82
2021/04/14 12:37:10;;;;;;;8.80;5.40;;;3.20;99.90;;;;;;5071220;28;20561;-80
2021/04/14 12:39:35;;;;;;;10.80;4.47;;;2.80;99.90;;;;;;5081349;28;20047;-81
2021/04/14 12:42:01;;;;;;;9.05;6.25;;;2.70;99.90;;;;;;5070370;28;20027;-79
2021/04/14 12:44:28;;;;;;;6.53;4.93;;;2.50;99.90;;;;;;5082934;28;20328;-81
2021/04/14 12:46:56;;;;;;;7.18;5.72;;;2.50;99.90;;;;;;5085452;28;20568;-81
2021/04/14 12:49:22;;;;;;;12.38;7.82;;;2.50;99.90;;;;;;5081373;28;20042;-82
2021/04/14 12:51:58;;;;;;;7.05;6.00;;;2.70;99.90;;;;;;5088729;28;20037;-83
2021/04/14 12:54:31;;;;;;;9.90;6.80;;;2.90;99.90;;;;;;5092022;28;20481;-81
2021/04/14 12:57:05;;;;;;;15.10;9.32;;;2.90;99.90;;;;;;5088371;28;20066;-82
2021/04/14 12:59:43;;;;;;;6.63;5.43;;;3.00;99.90;;;;;;5082991;28;20063;-82
2021/04/14 13:02:18;;;;;;;10.27;6.90;;;3.00;99.90;;;;;;5086030;28;20028;-82
2021/04/14 13:04:50;;;;;;;9.23;6.30;;;3.10;99.90;;;;;;5080889;28;20020;-80
2021/04/14 13:07:23;;;;;;;10.85;6.63;;;3.10;99.90;;;;;;5085427;28;20641;-80
2021/04/14 13:09:50;;;;;;;12.20;6.60;;;3.10;99.90;;;;;;5091552;28;20107;-80
2021/04/14 13:12:19;;;;;;;12.93;7.68;;;3.10;99.90;;;;;;5092039;28;20035;-80
2021/04/14 13:14:45;;;;;;;8.55;5.07;;;3.00;99.90;;;;;;5082775;28;20495;-80
2021/04/14 13:17:15;;;;;;;12.32;7.00;;;2.80;99.90;;;;;;5082027;28;20415;-81
2021/04/14 13:19:42;;;;;;;18.60;9.23;;;2.90;99.90;;;;;;5062341;28;20017;-83